createdAt,value
2023-03-23T15:57:53.623Z,23.39
2023-03-23T16:00:22.810Z,23.39
2023-03-23T16:03:03.233Z,23.39
2023-03-23T16:05:30.579Z,23.40
2023-03-23T16:07:58.690Z,23.49
2023-03-23T16:10:26.748Z,23.41
2023-03-23T16:12:54.232Z,23.38
2023-03-23T16:15:21.998Z,23.38
2023-03-23T16:17:49.528Z,23.37
2023-03-23T16:20:19.469Z,23.37
2023-03-23T16:22:47.659Z,23.37
2023-03-23T16:25:15.312Z,23.37
2023-03-23T16:27:42.943Z,23.36
2023-03-23T16:30:21.041Z,23.38
2023-03-23T16:32:48.838Z,23.37
2023-03-23T16:35:16.873Z,23.36
2023-03-23T16:37:51.579Z,23.37
2023-03-23T16:40:35.948Z,23.36
2023-03-23T16:43:08.750Z,23.37
2023-03-23T16:45:38.390Z,23.37
2023-03-23T16:48:06.371Z,23.37
2023-03-23T16:50:34.047Z,23.38
2023-03-23T16:53:01.889Z,23.37
2023-03-23T16:55:29.861Z,23.38
2023-03-23T16:58:12.802Z,23.39
2023-03-23T17:00:44.267Z,23.39
2023-03-23T17:03:12.376Z,23.40
2023-03-23T17:05:40.648Z,23.40
2023-03-23T17:08:08.536Z,23.41
2023-03-23T17:10:38.037Z,23.41
2023-03-23T17:13:05.759Z,23.40
2023-03-23T17:15:39.140Z,23.42
2023-03-23T17:18:07.103Z,23.40
2023-03-23T17:20:35.032Z,23.41
2023-03-23T17:23:02.748Z,23.40
2023-03-23T17:25:31.463Z,23.41
2023-03-23T17:28:05.730Z,23.42
2023-03-23T17:30:36.138Z,23.44
2023-03-23T17:33:04.829Z,23.45
2023-03-23T17:35:32.352Z,23.47
2023-03-23T17:38:00.737Z,23.46
2023-03-23T17:40:29.058Z,23.46
2023-03-23T17:42:56.916Z,23.45
2023-03-23T17:45:24.999Z,23.48
2023-03-23T17:47:56.377Z,23.47
2023-03-23T17:50:23.969Z,23.47
2023-03-23T17:52:53.782Z,23.48
2023-03-23T17:55:22.215Z,23.46
2023-03-23T17:57:50.107Z,23.47
2023-03-23T18:00:18.409Z,23.47
2023-03-23T18:02:47.727Z,23.47
2023-03-23T18:05:16.051Z,23.48
2023-03-23T18:07:44.004Z,23.47
2023-03-23T18:10:13.313Z,23.45
2023-03-23T18:12:43.621Z,23.44
2023-03-23T18:15:11.793Z,23.44
2023-03-23T18:17:41.150Z,23.47
2023-03-23T18:20:09.729Z,23.47
2023-03-23T18:22:37.777Z,23.46
2023-03-23T18:25:06.922Z,23.46
2023-03-23T18:27:36.026Z,23.47
2023-03-23T18:30:05.860Z,23.47
2023-03-23T18:32:40.210Z,23.46
2023-03-23T18:35:10.057Z,23.46
2023-03-23T18:37:40.630Z,23.45
2023-03-23T18:40:13.295Z,23.45
2023-03-23T18:42:42.817Z,23.43
2023-03-23T18:45:11.628Z,23.43
2023-03-23T18:47:40.423Z,23.46
2023-03-23T18:50:09.915Z,23.48
2023-03-23T18:52:39.429Z,23.49
2023-03-23T18:55:08.512Z,23.50
2023-03-23T18:57:40.239Z,23.49
2023-03-23T19:00:10.581Z,23.47
2023-03-23T19:02:40.540Z,23.48
2023-03-23T19:05:09.888Z,23.48
2023-03-23T19:07:40.175Z,23.48
2023-03-23T19:10:08.273Z,23.48
2023-03-23T19:12:37.341Z,23.48
2023-03-23T19:15:09.290Z,23.49
2023-03-23T19:17:38.355Z,23.49
2023-03-23T19:20:14.559Z,23.50
2023-03-23T19:22:49.105Z,23.49
2023-03-23T19:25:19.625Z,23.46
2023-03-23T19:28:38.498Z,23.45
2023-03-23T19:30:45.049Z,23.44
2023-03-23T19:33:13.878Z,23.46
2023-03-23T19:36:05.686Z,23.47
2023-03-23T19:38:38.736Z,23.47
2023-03-23T19:41:08.278Z,23.48
2023-03-23T19:43:37.781Z,23.47
2023-03-23T19:46:06.686Z,23.49
2023-03-23T19:48:36.133Z,23.56
2023-03-23T19:51:07.372Z,23.68
2023-03-23T19:53:36.935Z,23.80
2023-03-23T19:56:07.627Z,23.93
2023-03-23T19:58:38.777Z,24.04
2023-03-23T20:01:10.501Z,24.16
2023-03-23T20:03:40.266Z,24.26
2023-03-23T20:06:12.542Z,24.38
2023-03-23T20:08:43.726Z,24.47
2023-03-23T20:11:16.185Z,24.57
2023-03-23T20:13:47.027Z,24.65
2023-03-23T20:16:17.673Z,24.78
2023-03-23T20:18:50.004Z,24.87
2023-03-23T20:21:23.085Z,24.97
2023-03-23T20:23:57.763Z,25.08
2023-03-23T20:26:29.304Z,25.16
2023-03-23T20:28:59.800Z,25.27
2023-03-23T20:31:35.875Z,25.34
2023-03-23T20:34:10.475Z,25.42
2023-03-23T20:36:45.378Z,25.47
2023-03-23T20:39:17.756Z,25.54
2023-03-23T20:41:49.416Z,25.56
2023-03-23T20:44:20.146Z,25.57
2023-03-23T20:46:49.025Z,25.60
2023-03-23T20:49:18.597Z,25.60
2023-03-23T20:51:47.666Z,25.60
2023-03-23T20:54:17.111Z,25.69
2023-03-23T20:56:46.219Z,25.63
2023-03-23T20:59:16.010Z,25.62
2023-03-23T21:01:45.130Z,25.62
2023-03-23T21:04:18.420Z,25.61
2023-03-23T21:06:52.108Z,25.60
2023-03-23T21:09:19.952Z,25.60
2023-03-23T21:11:49.120Z,25.59
2023-03-23T21:14:17.899Z,25.54
2023-03-23T21:16:46.202Z,25.51
2023-03-23T21:19:14.871Z,25.49
2023-03-23T21:21:56.614Z,25.47
2023-03-23T21:24:29.258Z,25.44
2023-03-23T21:26:59.248Z,25.43
2023-03-23T21:29:28.347Z,25.40
2023-03-23T21:34:28.084Z,25.35
2023-03-23T21:36:55.957Z,25.34
2023-03-23T21:39:23.570Z,25.33
2023-03-23T21:41:51.298Z,25.32
2023-03-23T21:44:18.774Z,25.29
2023-03-23T21:46:46.347Z,25.28
2023-03-23T21:49:14.510Z,25.27
2023-03-23T21:51:42.743Z,25.23
2023-03-23T21:54:11.589Z,25.21
2023-03-23T21:56:39.699Z,25.18
2023-03-23T21:59:07.773Z,25.16
2023-03-23T22:01:36.957Z,25.15
2023-03-23T22:04:05.369Z,25.12
2023-03-23T22:06:34.489Z,25.12
2023-03-23T22:09:02.454Z,25.08
2023-03-23T22:11:31.761Z,25.07
2023-03-23T22:13:59.272Z,25.03
2023-03-23T22:16:26.817Z,24.97
2023-03-23T22:18:55.462Z,24.94
2023-03-23T22:21:25.963Z,24.90
2023-03-23T22:23:55.303Z,24.88
2023-03-23T22:26:22.906Z,24.87
2023-03-23T22:28:51.091Z,24.85
2023-03-23T22:31:21.976Z,24.82
2023-03-23T22:33:50.695Z,24.80
2023-03-23T22:36:18.236Z,24.78
2023-03-23T22:38:47.100Z,24.76
2023-03-23T22:41:17.568Z,24.74
2023-03-23T22:43:45.203Z,24.72
2023-03-23T22:46:13.076Z,24.71
2023-03-23T22:48:40.863Z,24.68
2023-03-23T22:51:08.937Z,24.65
2023-03-23T22:53:36.663Z,24.64
2023-03-23T22:56:04.329Z,24.64
2023-03-23T22:58:31.851Z,24.63
2023-03-23T23:01:06.665Z,24.60
2023-03-23T23:03:34.412Z,24.58
2023-03-23T23:06:02.249Z,24.59
2023-03-23T23:08:30.014Z,24.56
2023-03-23T23:10:58.291Z,24.56
2023-03-23T23:13:26.410Z,24.53
2023-03-23T23:15:55.298Z,24.52
2023-03-23T23:18:22.949Z,24.51
2023-03-23T23:20:52.192Z,24.50
2023-03-23T23:23:19.727Z,24.49
2023-03-23T23:25:47.166Z,24.46
2023-03-23T23:28:15.034Z,24.45
2023-03-23T23:30:42.527Z,24.42
2023-03-23T23:33:10.104Z,24.41
2023-03-23T23:35:38.315Z,24.40
2023-03-23T23:38:06.074Z,24.39
2023-03-23T23:40:35.317Z,24.38
2023-03-23T23:43:03.189Z,24.38
2023-03-23T23:45:31.131Z,24.36
2023-03-23T23:47:59.157Z,24.34
2023-03-23T23:50:29.665Z,24.33
2023-03-23T23:52:58.717Z,24.32
2023-03-23T23:55:26.361Z,24.30
2023-03-23T23:57:54.084Z,24.30
